Date,TemperatureHighF,TemperatureAvgF,TemperatureLowF,DewpointHighF,DewpointAvgF,DewpointLowF,HumidityHigh,HumidityAvg,HumidityLow,PressureMaxIn,PressureMinIn,WindSpeedMaxMPH,WindSpeedAvgMPH,GustSpeedMaxMPH,PrecipitationSumIn
2013-11-1,64.9,59.6,49.8,61.6,55.7,46.9,97,88,66,29.12,28.85,6,1,6,0.00
2013-11-2,64.2,51.1,42.4,49.5,44.5,38.6,95,80,54,29.09,28.94,3,0,3,0.00
2013-11-3,45.3,39.9,30.7,40.4,29.1,15.6,90,66,51,29.71,29.09,6,1,6,0.00
2013-11-4,43.2,33.7,28.4,20.6,17.2,13.9,64,51,40,29.94,29.71,3,0,3,0.00
2013-11-5,53.4,40.3,29.7,36.7,29.3,20.2,78,65,52,29.94,29.79,3,0,3,0.00
2013-11-6,59.7,48.5,35.8,50.2,40.9,31.4,91,76,58,29.79,29.38,4,0,4,0.00
2013-11-7,60.3,51.8,34.9,56.2,47.7,28.4,94,86,63,29.38,29.06,6,1,6,0.00
2013-11-8,47.5,39.2,33.1,30.8,27.3,22.5,83,63,46,29.44,29.20,8,1,8,0.00
2013-11-9,47.3,40.4,32.4,29.7,26.7,22.7,73,58,48,29.56,29.29,3,0,3,0.00
2013-11-10,58.1,45.9,42.3,37.9,31.4,26.1,65,57,44,29.29,29.09,6,2,6,0.00
2013-11-11,50.2,44.7,36.9,29.1,26.6,23.0,58,49,43,29.44,29.23,6,3,6,0.00
2013-11-12,48.0,34.1,22.8,32.0,21.9,13.8,78,61,48,29.53,29.20,3,1,3,0.00
2013-11-13,34.9,27.3,20.5,15.7,13.6,11.6,72,56,42,29.62,29.53,3,3,3,0.00
2013-11-14,49.8,37.5,28.4,25.2,18.4,14.5,58,46,37,29.53,29.41,3,3,3,0.00
2013-11-15,55.9,40.3,29.3,29.4,21.1,14.5,65,47,36,29.53,29.44,3,2,3,0.00
2013-11-16,57.9,45.4,31.8,38.7,32.2,21.4,79,61,42,29.62,29.53,0,0,0,0.00
2013-11-17,57.9,51.9,40.1,56.6,49.0,33.8,96,90,78,29.56,29.09,0,0,0,0.00
2013-11-18,60.4,55.6,46.0,59.3,43.5,24.8,98,67,42,29.09,28.88,0,0,0,0.00
2013-11-19,46.2,41.1,34.3,25.9,21.9,17.2,50,46,42,29.50,29.06,0,0,0,0.00
2013-11-20,40.5,32.3,23.2,18.1,14.2,11.1,61,47,39,29.88,29.79,0,0,0,0.00
2013-11-21,47.7,35.4,21.4,32.1,22.8,11.7,69,60,48,29.91,29.68,0,0,0,0.00
2013-11-22,52.0,47.5,41.7,47.0,42.2,32.0,89,82,68,29.68,29.17,0,0,0,0.00
2013-11-23,50.2,38.7,26.8,45.5,24.6,9.6,84,57,42,29.32,29.17,3,2,3,0.00
2013-11-24,27.1,22.9,20.1,11.9,4.2,1.9,53,44,37,29.59,29.23,11,3,15,0.00
2013-11-25,32.7,25.8,17.1,12.7,8.6,2.0,57,48,42,29.74,29.59,6,1,6,0.00
2013-11-26,41.0,34.7,30.9,37.1,19.7,11.6,86,55,44,29.62,29.20,4,0,4,0.85
2013-11-27,57.9,43.7,32.9,55.9,40.3,23.9,94,88,69,29.20,28.64,3,2,3,3.44
2013-11-28,32.9,27.9,23.0,23.9,14.1,10.4,69,56,45,29.74,28.97,3,3,3,2.15
2013-11-29,34.0,28.1,21.4,19.3,16.0,12.1,72,60,50,29.97,29.74,3,3,3,2.15
2013-11-30,33.1,26.2,18.1,21.7,13.7,8.5,71,59,46,30.03,29.68,3,3,3,0.00